createdAt,value
2018-07-20T00:00:47.012Z,19.00
2018-07-20T00:03:15.215Z,18.70
2018-07-20T00:05:44.731Z,18.60
2018-07-20T00:08:13.123Z,18.50
2018-07-20T00:10:41.402Z,18.30
2018-07-20T00:13:09.650Z,18.30
2018-07-20T00:15:37.869Z,18.20
2018-07-20T00:18:06.552Z,18.30
2018-07-20T00:20:34.759Z,18.30
2018-07-20T00:23:03.045Z,18.20
2018-07-20T00:25:31.298Z,18.10
2018-07-20T00:27:59.504Z,18.20
2018-07-20T00:30:27.816Z,18.20
2018-07-20T00:32:56.018Z,18.20
2018-07-20T00:35:24.338Z,18.10
2018-07-20T00:37:52.586Z,18.20
2018-07-20T00:40:20.761Z,18.30
2018-07-20T00:42:49.032Z,18.30
2018-07-20T00:45:17.273Z,18.30
2018-07-20T00:47:45.549Z,18.30
2018-07-20T00:50:13.773Z,18.20
2018-07-20T00:52:42.121Z,18.10
2018-07-20T00:55:10.485Z,18.10
2018-07-20T00:57:38.692Z,18.10
2018-07-20T01:00:07.009Z,18.00
2018-07-20T01:02:35.245Z,17.90
2018-07-20T01:05:03.522Z,17.90
2018-07-20T01:07:31.800Z,17.90
2018-07-20T01:10:00.016Z,17.90
2018-07-20T01:12:28.252Z,17.80
2018-07-20T01:14:56.509Z,17.80
2018-07-20T01:17:24.715Z,17.80
2018-07-20T01:19:53.091Z,17.90
2018-07-20T01:22:21.316Z,17.80
2018-07-20T01:24:49.582Z,17.60
2018-07-20T01:27:17.769Z,17.40
2018-07-20T01:29:46.006Z,17.40
2018-07-20T01:32:14.262Z,17.40
2018-07-20T01:34:42.470Z,17.40
2018-07-20T01:37:10.740Z,17.30
2018-07-20T01:39:39.021Z,17.30
2018-07-20T01:42:07.268Z,17.30
2018-07-20T01:44:35.504Z,17.30
2018-07-20T01:47:03.724Z,17.20
2018-07-20T01:49:32.041Z,17.30
2018-07-20T01:52:00.251Z,17.40
2018-07-20T01:54:28.577Z,17.30
2018-07-20T01:56:56.846Z,17.30
2018-07-20T01:59:25.084Z,17.30
2018-07-20T02:01:53.342Z,17.20
2018-07-20T02:04:21.560Z,17.10
2018-07-20T02:06:49.814Z,17.10
2018-07-20T02:09:18.051Z,17.10
2018-07-20T02:11:46.254Z,17.00
2018-07-20T02:14:14.500Z,17.00
2018-07-20T02:16:42.707Z,16.90
2018-07-20T02:19:10.951Z,16.90
2018-07-20T02:21:39.194Z,17.00
2018-07-20T02:24:07.549Z,17.10
2018-07-20T02:26:35.873Z,17.10
2018-07-20T02:29:04.102Z,16.60
2018-07-20T02:31:32.349Z,16.60
2018-07-20T02:34:00.611Z,16.80
2018-07-20T02:36:28.839Z,16.80
2018-07-20T02:38:57.064Z,16.90
2018-07-20T02:41:25.409Z,17.00
2018-07-20T02:43:53.669Z,16.90
2018-07-20T02:46:21.914Z,16.90
2018-07-20T02:48:50.138Z,16.90
2018-07-20T02:51:18.445Z,16.70
2018-07-20T02:53:46.685Z,16.60
2018-07-20T02:56:14.921Z,16.60
2018-07-20T02:58:43.174Z,16.70
2018-07-20T03:01:11.409Z,16.80
2018-07-20T03:03:39.705Z,16.80
2018-07-20T03:06:08.071Z,16.90
2018-07-20T03:08:36.343Z,17.00
2018-07-20T03:11:04.569Z,17.00
2018-07-20T03:13:32.773Z,16.90
2018-07-20T03:16:01.005Z,16.80
2018-07-20T03:18:29.283Z,16.60
2018-07-20T03:20:57.551Z,16.80
2018-07-20T03:23:25.799Z,16.90
2018-07-20T03:25:54.020Z,16.80
2018-07-20T03:28:22.257Z,16.80
2018-07-20T03:30:50.542Z,16.80
2018-07-20T03:33:18.782Z,16.80
2018-07-20T03:35:47.031Z,16.70
2018-07-20T03:38:15.412Z,16.50
2018-07-20T03:40:43.693Z,16.30
2018-07-20T03:43:12.017Z,16.00
2018-07-20T03:45:40.254Z,15.90
2018-07-20T03:48:08.472Z,15.90
2018-07-20T03:50:36.738Z,16.10
2018-07-20T03:53:05.017Z,16.10
2018-07-20T03:55:33.217Z,16.00
2018-07-20T03:58:01.468Z,16.00
2018-07-20T04:00:29.685Z,16.10
2018-07-20T04:02:57.957Z,16.30
2018-07-20T04:05:26.200Z,16.20
2018-07-20T04:07:54.380Z,16.10
2018-07-20T04:10:22.724Z,16.20
2018-07-20T04:12:51.002Z,16.30
2018-07-20T04:15:19.268Z,16.20
2018-07-20T04:17:47.568Z,16.10
2018-07-20T04:20:16.430Z,16.10
2018-07-20T04:22:44.882Z,16.00
2018-07-20T04:25:13.178Z,15.90
2018-07-20T04:27:41.433Z,15.80
2018-07-20T04:30:11.877Z,15.90
2018-07-20T04:32:40.138Z,16.20
2018-07-20T04:35:09.158Z,16.40
2018-07-20T04:37:37.456Z,16.60
2018-07-20T04:40:06.098Z,16.50
2018-07-20T04:42:34.819Z,16.50
2018-07-20T04:45:03.262Z,16.50
2018-07-20T04:47:31.516Z,16.50
2018-07-20T04:49:59.779Z,16.70
2018-07-20T04:52:28.034Z,17.00
2018-07-20T04:54:56.341Z,17.00
2018-07-20T04:57:24.717Z,16.90
2018-07-20T04:59:52.981Z,16.90
2018-07-20T05:02:21.226Z,16.90
2018-07-20T05:04:49.457Z,17.10
2018-07-20T05:07:17.662Z,17.30
2018-07-20T05:09:45.959Z,17.60
2018-07-20T05:12:14.213Z,17.70
2018-07-20T05:14:42.430Z,17.80
2018-07-20T05:17:10.717Z,18.00
2018-07-20T05:19:38.940Z,18.00
2018-07-20T05:22:07.466Z,18.10
2018-07-20T05:24:35.684Z,18.50
2018-07-20T05:27:03.985Z,19.00
2018-07-20T05:29:32.311Z,19.40
2018-07-20T05:32:00.544Z,19.60
2018-07-20T05:34:28.776Z,19.80
2018-07-20T05:36:56.988Z,19.80
2018-07-20T05:39:25.280Z,19.70
2018-07-20T05:41:53.491Z,19.50
2018-07-20T05:44:22.406Z,19.80
2018-07-20T05:46:50.772Z,20.10
2018-07-20T05:49:19.016Z,20.60
2018-07-20T05:51:47.252Z,20.90
2018-07-20T05:54:15.461Z,21.20
2018-07-20T05:56:43.705Z,21.30
2018-07-20T05:59:12.133Z,21.60
2018-07-20T06:01:40.348Z,21.70
2018-07-20T06:04:08.677Z,21.90
2018-07-20T06:06:36.945Z,22.40
2018-07-20T06:09:09.470Z,22.20
2018-07-20T06:11:37.842Z,22.30
2018-07-20T06:14:06.283Z,22.20
2018-07-20T06:16:34.515Z,22.50
2018-07-20T06:19:02.984Z,22.90
2018-07-20T06:21:31.285Z,23.30
2018-07-20T06:23:59.472Z,23.40
2018-07-20T06:26:27.730Z,23.50
2018-07-20T06:31:23.993Z,23.60
2018-07-20T06:33:52.251Z,23.70
2018-07-20T06:36:20.473Z,24.00
2018-07-20T06:38:48.782Z,24.00
2018-07-20T06:41:17.061Z,24.20
2018-07-20T06:43:45.330Z,24.20
2018-07-20T06:46:13.617Z,24.00
2018-07-20T06:48:41.906Z,23.90
2018-07-20T06:51:10.266Z,23.90
2018-07-20T06:53:38.501Z,23.60
2018-07-20T06:56:06.769Z,23.60
2018-07-20T06:58:34.986Z,23.90
2018-07-20T07:01:03.333Z,24.00
2018-07-20T07:03:31.574Z,24.20
2018-07-20T07:05:59.769Z,24.70
2018-07-20T07:08:28.007Z,24.80
2018-07-20T07:10:56.222Z,24.50
2018-07-20T07:13:24.529Z,24.60
2018-07-20T07:15:52.867Z,24.70
2018-07-20T07:18:21.070Z,24.90
2018-07-20T07:20:49.348Z,24.90
2018-07-20T07:23:17.573Z,24.60
2018-07-20T07:25:45.838Z,24.80
2018-07-20T07:28:14.067Z,25.00
2018-07-20T07:30:42.268Z,25.00
2018-07-20T07:33:10.618Z,24.90
2018-07-20T07:35:38.876Z,24.90
2018-07-20T07:38:07.085Z,25.10
2018-07-20T07:40:35.326Z,25.60
2018-07-20T07:43:03.613Z,25.60
2018-07-20T07:45:31.854Z,25.90
2018-07-20T07:48:00.153Z,26.30
2018-07-20T07:50:28.449Z,26.60
2018-07-20T07:52:56.764Z,26.70
2018-07-20T07:55:24.979Z,26.50
2018-07-20T07:57:53.795Z,26.20
2018-07-20T08:00:22.033Z,26.20
2018-07-20T08:02:50.283Z,26.40
2018-07-20T08:05:19.170Z,26.20
2018-07-20T08:07:47.432Z,26.20
2018-07-20T08:10:15.711Z,26.30
2018-07-20T08:12:43.930Z,26.60
2018-07-20T08:15:12.196Z,26.80
2018-07-20T08:17:40.452Z,27.00
2018-07-20T08:20:08.778Z,27.10
2018-07-20T08:22:37.022Z,27.20
2018-07-20T08:25:05.271Z,27.40
2018-07-20T08:27:33.692Z,27.60
2018-07-20T08:30:01.921Z,27.50
2018-07-20T08:32:30.144Z,27.60
2018-07-20T08:34:58.411Z,27.60
2018-07-20T08:37:26.765Z,27.80
2018-07-20T08:39:55.035Z,27.90
2018-07-20T08:42:23.249Z,28.00
2018-07-20T08:44:51.533Z,28.10
2018-07-20T08:47:19.821Z,28.20
2018-07-20T08:49:48.226Z,28.30
2018-07-20T08:52:16.575Z,28.40
2018-07-20T08:54:44.801Z,28.50
2018-07-20T08:57:13.035Z,28.60
2018-07-20T08:59:41.245Z,28.70
2018-07-20T09:02:09.710Z,28.80
2018-07-20T09:04:38.134Z,29.00
2018-07-20T09:07:06.422Z,29.10
2018-07-20T09:09:34.741Z,29.10
2018-07-20T09:12:03.030Z,29.30
2018-07-20T09:14:32.585Z,29.50
2018-07-20T09:17:00.884Z,29.50
2018-07-20T09:19:29.166Z,29.60
2018-07-20T09:21:57.474Z,29.70
2018-07-20T09:24:25.730Z,29.90
2018-07-20T09:26:53.994Z,29.70
2018-07-20T09:29:22.277Z,29.60
2018-07-20T09:31:50.532Z,29.70
2018-07-20T09:34:18.723Z,29.80
2018-07-20T09:36:47.011Z,29.80
2018-07-20T09:39:15.318Z,29.80
2018-07-20T09:41:43.710Z,29.30
2018-07-20T09:44:11.989Z,29.20
2018-07-20T09:46:40.246Z,29.60
2018-07-20T09:49:08.553Z,29.80
2018-07-20T09:51:36.832Z,30.10
2018-07-20T09:54:05.153Z,30.40
2018-07-20T09:56:33.461Z,30.60
2018-07-20T09:59:01.768Z,30.60
2018-07-20T10:01:30.049Z,30.50
2018-07-20T10:03:58.311Z,30.20
2018-07-20T10:06:26.539Z,30.10
2018-07-20T10:08:54.801Z,30.00
2018-07-20T10:11:23.102Z,30.20
2018-07-20T10:13:51.346Z,30.20
2018-07-20T10:16:19.717Z,30.10
2018-07-20T10:18:47.925Z,29.80
2018-07-20T10:21:16.182Z,29.70
2018-07-20T10:23:44.615Z,30.10
2018-07-20T10:26:12.809Z,30.00
2018-07-20T10:28:41.065Z,30.20
2018-07-20T10:31:09.289Z,30.30
2018-07-20T10:33:37.525Z,30.50
2018-07-20T10:36:05.762Z,30.50
2018-07-20T10:38:33.986Z,30.70
2018-07-20T10:41:02.183Z,30.90
2018-07-20T10:43:30.426Z,30.70
2018-07-20T10:45:58.637Z,30.50
2018-07-20T10:48:26.881Z,30.70
2018-07-20T10:50:55.087Z,30.70
2018-07-20T10:53:23.343Z,30.70
2018-07-20T10:55:51.629Z,30.80
2018-07-20T10:58:19.905Z,30.80
2018-07-20T11:00:48.175Z,31.00
2018-07-20T11:03:16.492Z,31.20
2018-07-20T11:05:44.776Z,31.20
2018-07-20T11:08:13.070Z,31.00
2018-07-20T11:10:41.339Z,30.90
2018-07-20T11:13:09.562Z,31.00
2018-07-20T11:15:37.801Z,31.00
2018-07-20T11:18:06.070Z,31.10
2018-07-20T11:20:34.348Z,31.00
2018-07-20T11:23:02.595Z,31.10
2018-07-20T11:25:30.829Z,31.10
2018-07-20T11:27:59.151Z,30.90
2018-07-20T11:30:27.626Z,30.90
2018-07-20T11:32:55.945Z,31.00
2018-07-20T11:35:24.171Z,30.80
2018-07-20T11:37:52.433Z,30.80
2018-07-20T11:40:20.690Z,30.70
2018-07-20T11:42:48.988Z,30.80
2018-07-20T11:47:45.429Z,31.00
2018-07-20T11:50:13.686Z,31.00
2018-07-20T11:52:41.945Z,31.10
2018-07-20T11:55:10.159Z,31.40
2018-07-20T11:57:38.478Z,31.00
2018-07-20T12:00:06.773Z,31.30
2018-07-20T12:02:35.052Z,31.40
2018-07-20T12:05:03.419Z,31.60
2018-07-20T12:07:31.653Z,31.60
2018-07-20T12:09:59.969Z,31.70
2018-07-20T12:12:28.203Z,31.70
2018-07-20T12:14:56.457Z,31.90
2018-07-20T12:17:24.726Z,31.90
2018-07-20T12:19:52.958Z,31.90
2018-07-20T12:22:21.227Z,31.90
2018-07-20T12:24:49.437Z,31.80
2018-07-20T12:27:17.710Z,31.20
2018-07-20T12:29:46.113Z,31.00
2018-07-20T12:32:14.397Z,30.70
2018-07-20T12:34:42.682Z,31.20
2018-07-20T12:37:10.904Z,31.50
2018-07-20T12:39:39.181Z,31.90
2018-07-20T12:42:07.459Z,32.20
2018-07-20T12:44:35.764Z,32.20
2018-07-20T12:47:04.063Z,32.60
2018-07-20T12:49:32.305Z,32.90
2018-07-20T12:52:00.627Z,33.00
2018-07-20T12:54:28.894Z,32.70
2018-07-20T12:56:57.153Z,32.30
2018-07-20T12:59:25.508Z,31.70
2018-07-20T13:01:53.789Z,31.30
2018-07-20T13:04:22.080Z,31.20
2018-07-20T13:06:50.370Z,31.90
2018-07-20T13:09:18.617Z,32.10
2018-07-20T13:11:46.957Z,32.10
2018-07-20T13:14:15.175Z,32.10
2018-07-20T13:16:43.450Z,32.10
2018-07-20T13:19:11.733Z,32.30
2018-07-20T13:21:40.060Z,32.20
2018-07-20T13:24:08.301Z,32.10
2018-07-20T13:26:36.766Z,32.10
2018-07-20T13:29:05.158Z,31.60
2018-07-20T13:31:33.348Z,31.30
2018-07-20T13:34:01.545Z,31.20
2018-07-20T13:38:57.733Z,31.30
2018-07-20T13:41:25.965Z,31.10
2018-07-20T13:43:54.578Z,31.30
2018-07-20T13:46:22.861Z,31.40
2018-07-20T13:48:51.155Z,30.90
2018-07-20T13:51:19.350Z,31.10
2018-07-20T13:56:15.833Z,31.60
2018-07-20T13:58:44.101Z,31.50
2018-07-20T14:01:12.357Z,31.80
2018-07-20T14:03:40.537Z,31.80
2018-07-20T14:06:08.792Z,31.70
2018-07-20T14:08:36.963Z,32.10
2018-07-20T14:11:05.350Z,32.40
2018-07-20T14:13:33.616Z,32.00
2018-07-20T14:16:01.914Z,31.50
2018-07-20T14:18:30.148Z,31.50
2018-07-20T14:20:58.382Z,31.50
2018-07-20T14:23:26.599Z,30.90
2018-07-20T14:25:54.825Z,31.00
2018-07-20T14:28:23.064Z,31.20
2018-07-20T14:30:51.329Z,30.70
2018-07-20T14:33:19.570Z,30.30
2018-07-20T14:35:47.803Z,30.30
2018-07-20T14:38:16.028Z,30.00
2018-07-20T14:40:44.197Z,30.10
2018-07-20T14:43:12.458Z,30.20
2018-07-20T14:45:40.694Z,30.00
2018-07-20T14:48:08.958Z,30.00
2018-07-20T14:50:37.229Z,30.20
2018-07-20T14:53:05.439Z,30.30
2018-07-20T14:55:33.734Z,30.30
2018-07-20T14:58:01.963Z,30.50
2018-07-20T15:00:30.233Z,30.30
2018-07-20T15:02:58.473Z,30.10
2018-07-20T15:05:26.701Z,30.00
2018-07-20T15:07:54.941Z,29.80
2018-07-20T15:10:23.151Z,29.80
2018-07-20T15:12:51.352Z,29.30
2018-07-20T15:15:19.614Z,29.10
2018-07-20T15:17:47.842Z,28.80
2018-07-20T15:20:16.062Z,28.80
2018-07-20T15:22:44.273Z,28.90
2018-07-20T15:25:12.484Z,29.00
2018-07-20T15:27:40.720Z,28.80
2018-07-20T15:30:15.110Z,29.00
2018-07-20T15:32:49.726Z,29.20
2018-07-20T15:35:18.080Z,29.10
2018-07-20T15:37:46.298Z,29.00
2018-07-20T15:40:14.465Z,29.20
2018-07-20T15:42:42.691Z,29.30
2018-07-20T15:45:10.876Z,29.10
2018-07-20T15:47:39.151Z,29.20
2018-07-20T15:50:07.569Z,29.30
2018-07-20T15:57:32.343Z,29.50
2018-07-20T16:00:00.904Z,29.30
2018-07-20T16:02:29.161Z,29.30
2018-07-20T16:04:57.422Z,29.30
2018-07-20T16:07:25.779Z,29.30
2018-07-20T16:09:54.009Z,29.50
2018-07-20T16:12:22.288Z,29.60
2018-07-20T16:14:50.542Z,29.60
2018-07-20T16:17:18.773Z,29.60
2018-07-20T16:19:46.981Z,29.50
2018-07-20T16:22:15.166Z,29.40
2018-07-20T16:24:43.561Z,29.30
2018-07-20T16:27:11.830Z,29.30
2018-07-20T16:29:40.022Z,29.30
2018-07-20T16:32:08.264Z,29.20
2018-07-20T16:34:36.501Z,29.20
2018-07-20T16:37:05.061Z,29.20
2018-07-20T16:39:33.298Z,29.20
2018-07-20T16:42:01.514Z,29.20
2018-07-20T16:44:29.788Z,29.20
2018-07-20T16:46:58.026Z,29.20
2018-07-20T16:49:26.261Z,29.10
2018-07-20T16:51:54.579Z,29.00
2018-07-20T16:54:22.789Z,29.00
2018-07-20T16:56:51.109Z,29.00
2018-07-20T16:59:19.655Z,28.90
2018-07-20T17:01:47.936Z,28.90
2018-07-20T17:04:16.178Z,29.00
2018-07-20T17:06:44.369Z,29.10
2018-07-20T17:09:12.664Z,29.00
2018-07-20T17:11:41.105Z,28.80
2018-07-20T17:14:09.366Z,28.70
2018-07-20T17:16:37.620Z,28.60
2018-07-20T17:19:05.898Z,28.50
2018-07-20T17:21:34.291Z,28.50
2018-07-20T17:24:02.512Z,28.40
2018-07-20T17:26:30.767Z,28.40
2018-07-20T17:28:59.058Z,28.30
2018-07-20T17:31:27.241Z,28.30
2018-07-20T17:33:55.456Z,28.20
2018-07-20T17:36:23.627Z,28.10
2018-07-20T17:38:51.840Z,28.10
2018-07-20T17:41:20.040Z,28.10
2018-07-20T17:46:16.242Z,28.00
2018-07-20T17:48:44.424Z,27.90
2018-07-20T17:51:12.632Z,27.70
2018-07-20T17:53:40.849Z,27.50
2018-07-20T17:56:09.063Z,27.40
2018-07-20T17:58:37.327Z,27.40
2018-07-20T18:01:05.839Z,27.40
2018-07-20T18:03:34.076Z,27.20
2018-07-20T18:06:02.310Z,27.20
2018-07-20T18:08:30.513Z,27.10
2018-07-20T18:10:58.681Z,27.00
2018-07-20T18:13:26.937Z,26.90
2018-07-20T18:15:55.107Z,26.90
2018-07-20T18:18:23.321Z,26.90
2018-07-20T18:20:51.997Z,26.80
2018-07-20T18:23:20.239Z,26.70
2018-07-20T18:25:48.720Z,26.60
2018-07-20T18:28:17.089Z,26.60
2018-07-20T18:30:46.198Z,26.60
2018-07-20T18:33:14.573Z,26.50
2018-07-20T18:35:43.790Z,26.40
2018-07-20T18:38:12.110Z,26.40
2018-07-20T18:40:40.345Z,26.30
2018-07-20T18:43:08.588Z,26.10
2018-07-20T18:45:36.817Z,26.00
2018-07-20T18:48:05.161Z,26.00
2018-07-20T18:50:33.413Z,25.90
2018-07-20T18:53:01.679Z,25.80
2018-07-20T18:55:29.980Z,25.80
2018-07-20T18:57:58.217Z,25.80
2018-07-20T19:00:26.613Z,25.80
2018-07-20T19:02:54.927Z,25.70
2018-07-20T19:05:23.405Z,25.60
2018-07-20T19:07:51.661Z,25.60
2018-07-20T19:10:19.900Z,25.60
2018-07-20T19:12:48.497Z,25.50
2018-07-20T19:15:16.710Z,25.40
2018-07-20T19:17:45.841Z,25.30
2018-07-20T19:20:14.053Z,25.30
2018-07-20T19:22:42.596Z,25.10
2018-07-20T19:25:10.809Z,25.10
2018-07-20T19:27:39.009Z,25.10
2018-07-20T19:30:07.797Z,24.80
2018-07-20T19:32:36.637Z,24.70
2018-07-20T19:35:04.937Z,24.70
2018-07-20T19:37:33.165Z,24.80
2018-07-20T19:40:01.382Z,24.80
2018-07-20T19:42:29.573Z,24.80
2018-07-20T19:44:57.921Z,24.80
2018-07-20T19:47:26.277Z,24.80
2018-07-20T19:49:54.521Z,24.70
2018-07-20T19:52:22.726Z,24.70
2018-07-20T19:54:50.951Z,24.60
2018-07-20T19:57:19.252Z,24.50
2018-07-20T19:59:47.416Z,24.30
2018-07-20T20:02:15.672Z,24.20
2018-07-20T20:04:43.917Z,24.30
2018-07-20T20:07:14.845Z,24.30
2018-07-20T20:12:11.215Z,24.30
2018-07-20T20:14:39.433Z,24.30
2018-07-20T20:17:07.648Z,24.30
2018-07-20T20:19:35.874Z,24.20
2018-07-20T20:22:04.097Z,24.30
2018-07-20T20:24:32.398Z,24.40
2018-07-20T20:27:00.656Z,24.40
2018-07-20T20:29:28.896Z,24.40
2018-07-20T20:36:54.056Z,24.30
2018-07-20T20:39:22.385Z,24.30
2018-07-20T20:41:50.644Z,24.40
2018-07-20T20:44:18.975Z,24.30
2018-07-20T20:46:47.172Z,24.20
2018-07-20T20:49:17.109Z,24.20
2018-07-20T20:51:45.752Z,24.20
2018-07-20T20:54:14.159Z,24.20
2018-07-20T20:56:42.525Z,24.20
2018-07-20T20:59:11.111Z,24.10
2018-07-20T21:01:39.359Z,24.00
2018-07-20T21:04:07.590Z,24.00
2018-07-20T21:06:35.924Z,23.80
2018-07-20T21:09:06.609Z,23.80
2018-07-20T21:11:35.383Z,23.80
2018-07-20T21:14:03.896Z,23.70
2018-07-20T21:16:32.216Z,23.70
2018-07-20T21:19:00.481Z,23.70
2018-07-20T21:21:28.798Z,23.70
2018-07-20T21:23:57.012Z,23.60
2018-07-20T21:26:25.268Z,23.60
2018-07-20T21:28:55.197Z,23.50
2018-07-20T21:31:23.537Z,23.40
2018-07-20T21:33:51.790Z,23.00
2018-07-20T21:36:20.029Z,22.70
2018-07-20T21:38:49.312Z,22.50
2018-07-20T21:41:17.528Z,22.20
2018-07-20T21:43:45.846Z,21.40
2018-07-20T21:46:14.037Z,20.70
2018-07-20T21:48:42.301Z,20.60
2018-07-20T21:51:10.520Z,20.50
2018-07-20T21:53:38.685Z,20.30
2018-07-20T21:56:07.087Z,20.20
2018-07-20T21:58:35.293Z,20.00
2018-07-20T22:01:03.695Z,20.00
2018-07-20T22:03:31.907Z,19.90
2018-07-20T22:06:00.069Z,19.90
2018-07-20T22:08:28.339Z,19.80
2018-07-20T22:10:56.546Z,19.80
2018-07-20T22:13:24.734Z,19.70
2018-07-20T22:15:52.973Z,19.70
2018-07-20T22:18:21.177Z,19.70
2018-07-20T22:20:50.317Z,19.80
2018-07-20T22:23:18.556Z,19.70
2018-07-20T22:25:46.769Z,19.50
2018-07-20T22:28:14.929Z,19.30
2018-07-20T22:30:43.138Z,19.30
2018-07-20T22:33:11.345Z,19.30
2018-07-20T22:35:39.513Z,19.30
2018-07-20T22:38:07.704Z,19.40
2018-07-20T22:40:35.864Z,19.40
2018-07-20T22:43:04.116Z,19.40
2018-07-20T22:45:32.308Z,19.40
2018-07-20T22:48:00.514Z,19.50
2018-07-20T22:50:28.721Z,19.60
2018-07-20T22:52:56.915Z,19.60
2018-07-20T22:55:25.113Z,19.30
2018-07-20T22:57:53.337Z,19.10
2018-07-20T23:00:21.547Z,19.10
2018-07-20T23:02:49.707Z,19.10
2018-07-20T23:05:17.984Z,19.10
2018-07-20T23:07:46.175Z,19.30
2018-07-20T23:10:14.388Z,19.30
2018-07-20T23:12:42.613Z,19.30
2018-07-20T23:15:10.829Z,19.20
2018-07-20T23:17:39.077Z,19.30
2018-07-20T23:20:07.305Z,19.30
2018-07-20T23:22:35.481Z,19.20
2018-07-20T23:25:03.981Z,19.10
2018-07-20T23:27:32.202Z,19.10
2018-07-20T23:30:00.385Z,19.20
2018-07-20T23:32:28.575Z,19.30
2018-07-20T23:34:56.752Z,19.40
2018-07-20T23:37:24.956Z,19.60
2018-07-20T23:39:53.177Z,19.60
2018-07-20T23:42:21.385Z,19.50
2018-07-20T23:44:49.604Z,19.50
2018-07-20T23:47:17.759Z,19.40
2018-07-20T23:49:46.012Z,19.40
2018-07-20T23:52:14.188Z,19.60
2018-07-20T23:54:42.549Z,19.70
2018-07-20T23:57:10.776Z,19.80
2018-07-20T23:59:38.994Z,19.90
